SWA1642 KPHX-KLAX
Flight info
| Callsign | SWA1642 |
|---|---|
| Flight time | 0h 58m |
| Altitude | 30000 |
| Route | KEENS3 WLVRN ESTWD HLYWD1 |
| Aircraft | B737/M-SDE2E3FGHIRWXY/LB1 |
Departure
| Time | 2026-04-22 21:24 |
|---|---|
| Airport | Phoenix Sky Harbor International Airport (KPHX) |
Arrival
| Time | 2026-04-22 22:22 |
|---|---|
| Airport | Los Angeles International Airport (KLAX) |
| Time | Latitude | Longitude | Altitude | Speed | Heading |
|---|---|---|---|---|---|
| 2026-04-22 21:09 | 33.43354 | -111.99481 | 1124 ft | 0 kts | 68° |
| 2026-04-22 21:18 | 33.43354 | -111.99483 | 1124 ft | 1 kts | 68° |
| 2026-04-22 21:18 | 33.43348 | -111.99501 | 1120 ft | 3 kts | 81° |
| 2026-04-22 21:18 | 33.43348 | -111.99524 | 1115 ft | 3 kts | 109° |
| 2026-04-22 21:19 | 33.43357 | -111.99543 | 1117 ft | 3 kts | 147° |
| 2026-04-22 21:19 | 33.43372 | -111.99550 | 1116 ft | 2 kts | 179° |
| 2026-04-22 21:19 | 33.43375 | -111.99550 | 1118 ft | 1 kts | 180° |
| 2026-04-22 21:21 | 33.43362 | -111.99554 | 1113 ft | 5 kts | 200° |
| 2026-04-22 21:21 | 33.43326 | -111.99578 | 1124 ft | 6 kts | 204° |
| 2026-04-22 21:22 | 33.43285 | -111.99578 | 1117 ft | 6 kts | 160° |
| 2026-04-22 21:22 | 33.43264 | -111.99563 | 1119 ft | 6 kts | 145° |
| 2026-04-22 21:22 | 33.43252 | -111.99553 | 1117 ft | 6 kts | 147° |
| 2026-04-22 21:22 | 33.43217 | -111.99509 | 1125 ft | 12 kts | 111° |
| 2026-04-22 21:23 | 33.43210 | -111.99386 | 1126 ft | 18 kts | 105° |
| 2026-04-22 21:23 | 33.43114 | -111.99374 | 1135 ft | 17 kts | 238° |
| 2026-04-22 21:23 | 33.43104 | -111.99591 | 1131 ft | 52 kts | 270° |
| 2026-04-22 21:23 | 33.43105 | -112.00312 | 1131 ft | 118 kts | 270° |
| 2026-04-22 21:24 | 33.43104 | -112.01516 | 1143 ft | 168 kts | 270° |
| 2026-04-22 21:24 | 33.43110 | -112.02987 | 1701 ft | 177 kts | 269° |
| 2026-04-22 21:24 | 33.43080 | -112.04461 | 2452 ft | 179 kts | 266° |
| 2026-04-22 21:24 | 33.43024 | -112.05996 | 3029 ft | 195 kts | 265° |
| 2026-04-22 21:25 | 33.42845 | -112.07686 | 3501 ft | 220 kts | 249° |
| 2026-04-22 21:25 | 33.42236 | -112.09478 | 3963 ft | 249 kts | 248° |
| 2026-04-22 21:25 | 33.41596 | -112.11471 | 4867 ft | 258 kts | 249° |
| 2026-04-22 21:25 | 33.40968 | -112.13482 | 6087 ft | 257 kts | 249° |
| 2026-04-22 21:26 | 33.40344 | -112.15496 | 7177 ft | 260 kts | 249° |
| 2026-04-22 21:26 | 33.39716 | -112.17530 | 8223 ft | 261 kts | 249° |
| 2026-04-22 21:26 | 33.39207 | -112.19636 | 9236 ft | 269 kts | 264° |
| 2026-04-22 21:26 | 33.39301 | -112.21876 | 10267 ft | 272 kts | 276° |
| 2026-04-22 21:27 | 33.39620 | -112.24181 | 10824 ft | 293 kts | 278° |
| 2026-04-22 21:27 | 33.40012 | -112.26705 | 11041 ft | 322 kts | 278° |
| 2026-04-22 21:27 | 33.40444 | -112.29448 | 11251 ft | 348 kts | 278° |
| 2026-04-22 21:27 | 33.40897 | -112.32355 | 11812 ft | 360 kts | 278° |
| 2026-04-22 21:28 | 33.41352 | -112.35312 | 12657 ft | 362 kts | 278° |
| 2026-04-22 21:28 | 33.41801 | -112.38283 | 13578 ft | 363 kts | 278° |
| 2026-04-22 21:28 | 33.42247 | -112.41267 | 14340 ft | 366 kts | 277° |
| 2026-04-22 21:28 | 33.42693 | -112.44277 | 15059 ft | 369 kts | 277° |
| 2026-04-22 21:29 | 33.43140 | -112.47309 | 15764 ft | 372 kts | 277° |
| 2026-04-22 21:29 | 33.43591 | -112.50376 | 16429 ft | 375 kts | 277° |
| 2026-04-22 21:29 | 33.44045 | -112.53466 | 17126 ft | 378 kts | 277° |
| 2026-04-22 21:29 | 33.44501 | -112.56581 | 17812 ft | 381 kts | 277° |
| 2026-04-22 21:30 | 33.44958 | -112.59721 | 18445 ft | 385 kts | 276° |
| 2026-04-22 21:30 | 33.45200 | -112.62914 | 19000 ft | 386 kts | 270° |
| 2026-04-22 21:30 | 33.45213 | -112.66126 | 19602 ft | 387 kts | 268° |
| 2026-04-22 21:30 | 33.45185 | -112.69361 | 20180 ft | 390 kts | 268° |
| 2026-04-22 21:31 | 33.45186 | -112.72617 | 20755 ft | 392 kts | 269° |
| 2026-04-22 21:31 | 33.45217 | -112.75895 | 21312 ft | 395 kts | 269° |
| 2026-04-22 21:31 | 33.45315 | -112.79198 | 21835 ft | 400 kts | 274° |
| 2026-04-22 21:31 | 33.46018 | -112.82444 | 22340 ft | 408 kts | 288° |
| 2026-04-22 21:32 | 33.47105 | -112.85592 | 22864 ft | 411 kts | 289° |
| 2026-04-22 21:32 | 33.48239 | -112.88744 | 23327 ft | 414 kts | 289° |
| 2026-04-22 21:32 | 33.49371 | -112.91871 | 23726 ft | 417 kts | 289° |
| 2026-04-22 21:32 | 33.50539 | -112.95116 | 24144 ft | 419 kts | 289° |
| 2026-04-22 21:33 | 33.51670 | -112.98287 | 24577 ft | 420 kts | 289° |
| 2026-04-22 21:33 | 33.52809 | -113.01513 | 24994 ft | 421 kts | 289° |
| 2026-04-22 21:33 | 33.53945 | -113.04751 | 25453 ft | 422 kts | 288° |
| 2026-04-22 21:33 | 33.55078 | -113.07993 | 25856 ft | 422 kts | 289° |
| 2026-04-22 21:34 | 33.56211 | -113.11246 | 26219 ft | 424 kts | 288° |
| 2026-04-22 21:34 | 33.57350 | -113.14521 | 26592 ft | 426 kts | 288° |
| 2026-04-22 21:34 | 33.58492 | -113.17805 | 26958 ft | 428 kts | 288° |
| 2026-04-22 21:34 | 33.59637 | -113.21102 | 27405 ft | 427 kts | 288° |
| 2026-04-22 21:35 | 33.60777 | -113.24383 | 27978 ft | 424 kts | 288° |
| 2026-04-22 21:35 | 33.61903 | -113.27628 | 28615 ft | 420 kts | 288° |
| 2026-04-22 21:35 | 33.63021 | -113.30853 | 29221 ft | 417 kts | 288° |
| 2026-04-22 21:35 | 33.64131 | -113.34061 | 29789 ft | 415 kts | 288° |
| 2026-04-22 21:36 | 33.65241 | -113.37274 | 29962 ft | 419 kts | 288° |
| 2026-04-22 21:36 | 33.66356 | -113.40508 | 29985 ft | 419 kts | 288° |
| 2026-04-22 21:36 | 33.68576 | -113.46947 | 30074 ft | 413 kts | 288° |
| 2026-04-22 21:37 | 33.70769 | -113.53318 | 30093 ft | 413 kts | 288° |
| 2026-04-22 21:37 | 33.72961 | -113.59709 | 30084 ft | 414 kts | 288° |
| 2026-04-22 21:38 | 33.75154 | -113.66109 | 29992 ft | 415 kts | 288° |
| 2026-04-22 21:38 | 33.77346 | -113.72520 | 29993 ft | 415 kts | 288° |
| 2026-04-22 21:39 | 33.79539 | -113.78945 | 29995 ft | 415 kts | 289° |
| 2026-04-22 21:39 | 33.81723 | -113.85368 | 29991 ft | 415 kts | 288° |
| 2026-04-22 21:40 | 33.83894 | -113.91788 | 30013 ft | 414 kts | 288° |
| 2026-04-22 21:40 | 33.86062 | -113.98212 | 29993 ft | 414 kts | 288° |
| 2026-04-22 21:41 | 33.88228 | -114.04640 | 29991 ft | 414 kts | 288° |
| 2026-04-22 21:41 | 33.90378 | -114.11060 | 29999 ft | 412 kts | 287° |
| 2026-04-22 21:42 | 33.91741 | -114.17709 | 29986 ft | 409 kts | 279° |
| 2026-04-22 21:42 | 33.92618 | -114.23295 | 29987 ft | 408 kts | 278° |
| 2026-04-22 21:43 | 33.93690 | -114.30001 | 29991 ft | 408 kts | 279° |
| 2026-04-22 21:43 | 33.94801 | -114.36698 | 29981 ft | 408 kts | 279° |
| 2026-04-22 21:44 | 33.95928 | -114.43401 | 29986 ft | 408 kts | 279° |
| 2026-04-22 21:44 | 33.97053 | -114.50092 | 29995 ft | 408 kts | 279° |
| 2026-04-22 21:45 | 33.98176 | -114.56796 | 29989 ft | 408 kts | 279° |
| 2026-04-22 21:45 | 33.99296 | -114.63507 | 29989 ft | 409 kts | 279° |
| 2026-04-22 21:46 | 34.00411 | -114.70219 | 29993 ft | 409 kts | 279° |
| 2026-04-22 21:46 | 34.01526 | -114.76951 | 29998 ft | 409 kts | 279° |
| 2026-04-22 21:47 | 34.02637 | -114.83680 | 30000 ft | 409 kts | 279° |
| 2026-04-22 21:47 | 34.03736 | -114.90367 | 29995 ft | 409 kts | 279° |
| 2026-04-22 21:48 | 34.04839 | -114.97090 | 30003 ft | 409 kts | 279° |
| 2026-04-22 21:48 | 34.05938 | -115.03822 | 29996 ft | 409 kts | 279° |
| 2026-04-22 21:49 | 34.07034 | -115.10551 | 30022 ft | 409 kts | 279° |
| 2026-04-22 21:49 | 34.08127 | -115.17283 | 30008 ft | 409 kts | 279° |
| 2026-04-22 21:50 | 34.09216 | -115.24008 | 30001 ft | 408 kts | 279° |
| 2026-04-22 21:50 | 34.10299 | -115.30732 | 30005 ft | 409 kts | 279° |
| 2026-04-22 21:51 | 34.11380 | -115.37464 | 29999 ft | 409 kts | 279° |
| 2026-04-22 21:52 | 34.12994 | -115.47557 | 30017 ft | 408 kts | 279° |
| 2026-04-22 21:52 | 34.14066 | -115.54293 | 30027 ft | 409 kts | 279° |
| 2026-04-22 21:53 | 34.15134 | -115.61031 | 30025 ft | 408 kts | 279° |
| 2026-04-22 21:53 | 34.16183 | -115.67760 | 30027 ft | 408 kts | 277° |
| 2026-04-22 21:53 | 34.16273 | -115.71169 | 30022 ft | 407 kts | 264° |
| 2026-04-22 21:54 | 34.15919 | -115.74555 | 30044 ft | 407 kts | 263° |
| 2026-04-22 21:54 | 34.15203 | -115.81348 | 30042 ft | 408 kts | 264° |
| 2026-04-22 21:55 | 34.14531 | -115.88139 | 30059 ft | 408 kts | 264° |
| 2026-04-22 21:55 | 34.13871 | -115.94935 | 30085 ft | 407 kts | 264° |
| 2026-04-22 21:56 | 34.13212 | -116.01670 | 30107 ft | 406 kts | 264° |
| 2026-04-22 21:56 | 34.12548 | -116.08437 | 30102 ft | 405 kts | 264° |
| 2026-04-22 21:57 | 34.11883 | -116.15183 | 30114 ft | 404 kts | 264° |
| 2026-04-22 21:57 | 34.11217 | -116.21911 | 30105 ft | 403 kts | 264° |
| 2026-04-22 21:58 | 34.10549 | -116.28627 | 30034 ft | 403 kts | 264° |
| 2026-04-22 21:58 | 34.09851 | -116.35346 | 30045 ft | 404 kts | 263° |
| 2026-04-22 21:59 | 34.09125 | -116.42074 | 30039 ft | 405 kts | 263° |
| 2026-04-22 21:59 | 34.08398 | -116.48818 | 30049 ft | 406 kts | 263° |
| 2026-04-22 22:00 | 34.07671 | -116.55553 | 29943 ft | 399 kts | 263° |
| 2026-04-22 22:00 | 34.07318 | -116.58805 | 29797 ft | 382 kts | 263° |
| 2026-04-22 22:00 | 34.07001 | -116.61958 | 29184 ft | 375 kts | 264° |
| 2026-04-22 22:00 | 34.06716 | -116.65057 | 28597 ft | 369 kts | 264° |
| 2026-04-22 22:01 | 34.06442 | -116.68102 | 28040 ft | 363 kts | 264° |
| 2026-04-22 22:01 | 34.06168 | -116.71106 | 27458 ft | 358 kts | 264° |
| 2026-04-22 22:01 | 34.05898 | -116.74068 | 26897 ft | 353 kts | 264° |
| 2026-04-22 22:01 | 34.05625 | -116.76992 | 26370 ft | 349 kts | 264° |
| 2026-04-22 22:02 | 34.05356 | -116.79883 | 25837 ft | 345 kts | 263° |
| 2026-04-22 22:02 | 34.05089 | -116.82749 | 25281 ft | 343 kts | 263° |
| 2026-04-22 22:02 | 34.04821 | -116.85597 | 24746 ft | 341 kts | 263° |
| 2026-04-22 22:02 | 34.04553 | -116.88438 | 24193 ft | 341 kts | 263° |
| 2026-04-22 22:03 | 34.04242 | -116.91258 | 23710 ft | 339 kts | 261° |
| 2026-04-22 22:03 | 34.03868 | -116.94057 | 23176 ft | 338 kts | 261° |
| 2026-04-22 22:03 | 34.03489 | -116.96846 | 22698 ft | 336 kts | 261° |
| 2026-04-22 22:03 | 34.03120 | -116.99622 | 22239 ft | 335 kts | 261° |
| 2026-04-22 22:04 | 34.02757 | -117.02394 | 21781 ft | 334 kts | 262° |
| 2026-04-22 22:04 | 34.02411 | -117.05152 | 21322 ft | 333 kts | 262° |
| 2026-04-22 22:04 | 34.02085 | -117.07908 | 20879 ft | 332 kts | 262° |
| 2026-04-22 22:04 | 34.01769 | -117.10618 | 20435 ft | 331 kts | 262° |
| 2026-04-22 22:05 | 34.01448 | -117.13360 | 20002 ft | 330 kts | 262° |
| 2026-04-22 22:05 | 34.01126 | -117.16093 | 19565 ft | 329 kts | 262° |
| 2026-04-22 22:05 | 34.00802 | -117.18822 | 19142 ft | 327 kts | 263° |
| 2026-04-22 22:05 | 34.00481 | -117.21508 | 18709 ft | 321 kts | 263° |
| 2026-04-22 22:06 | 34.00165 | -117.24152 | 18236 ft | 317 kts | 263° |
| 2026-04-22 22:06 | 33.99853 | -117.26755 | 17760 ft | 313 kts | 263° |
| 2026-04-22 22:06 | 33.99542 | -117.29343 | 17339 ft | 311 kts | 263° |
| 2026-04-22 22:06 | 33.99234 | -117.31922 | 16902 ft | 311 kts | 263° |
| 2026-04-22 22:07 | 33.98929 | -117.34509 | 16477 ft | 312 kts | 263° |
| 2026-04-22 22:07 | 33.98625 | -117.37105 | 16050 ft | 314 kts | 263° |
| 2026-04-22 22:07 | 33.98320 | -117.39709 | 15627 ft | 315 kts | 263° |
| 2026-04-22 22:07 | 33.98011 | -117.42324 | 15202 ft | 316 kts | 263° |
| 2026-04-22 22:08 | 33.97703 | -117.44944 | 14786 ft | 317 kts | 263° |
| 2026-04-22 22:08 | 33.97404 | -117.47576 | 14353 ft | 316 kts | 266° |
| 2026-04-22 22:08 | 33.97524 | -117.50186 | 13927 ft | 311 kts | 281° |
| 2026-04-22 22:08 | 33.98070 | -117.52684 | 13525 ft | 306 kts | 284° |
| 2026-04-22 22:09 | 33.98671 | -117.55125 | 13109 ft | 302 kts | 285° |
| 2026-04-22 22:09 | 33.99269 | -117.57536 | 12694 ft | 299 kts | 285° |
| 2026-04-22 22:09 | 33.99851 | -117.59925 | 12312 ft | 296 kts | 285° |
| 2026-04-22 22:09 | 34.00420 | -117.62306 | 12186 ft | 297 kts | 285° |
| 2026-04-22 22:10 | 34.00982 | -117.64678 | 12148 ft | 289 kts | 285° |
| 2026-04-22 22:10 | 34.01516 | -117.66943 | 12123 ft | 273 kts | 285° |
| 2026-04-22 22:10 | 34.02012 | -117.69085 | 12119 ft | 258 kts | 282° |
| 2026-04-22 22:10 | 34.02101 | -117.71168 | 12146 ft | 243 kts | 265° |
| 2026-04-22 22:11 | 34.01909 | -117.73139 | 12137 ft | 231 kts | 264° |
| 2026-04-22 22:11 | 34.01718 | -117.75018 | 12144 ft | 221 kts | 264° |
| 2026-04-22 22:11 | 34.01537 | -117.76817 | 12131 ft | 213 kts | 264° |
| 2026-04-22 22:11 | 34.01362 | -117.78554 | 12133 ft | 206 kts | 265° |
| 2026-04-22 22:12 | 34.01197 | -117.80233 | 12132 ft | 204 kts | 265° |
| 2026-04-22 22:12 | 34.01028 | -117.81953 | 12137 ft | 204 kts | 265° |
| 2026-04-22 22:12 | 34.00863 | -117.83650 | 12162 ft | 208 kts | 264° |
| 2026-04-22 22:12 | 34.00689 | -117.85430 | 12141 ft | 212 kts | 265° |
| 2026-04-22 22:13 | 34.00519 | -117.87153 | 12035 ft | 208 kts | 265° |
| 2026-04-22 22:13 | 34.00350 | -117.88879 | 11610 ft | 208 kts | 265° |
| 2026-04-22 22:13 | 34.00179 | -117.90614 | 11141 ft | 208 kts | 265° |
| 2026-04-22 22:13 | 34.00009 | -117.92349 | 10596 ft | 209 kts | 265° |
| 2026-04-22 22:14 | 33.99839 | -117.94091 | 10043 ft | 210 kts | 265° |
| 2026-04-22 22:14 | 33.99667 | -117.95848 | 9417 ft | 212 kts | 265° |
| 2026-04-22 22:14 | 33.99493 | -117.97611 | 8800 ft | 212 kts | 265° |
| 2026-04-22 22:14 | 33.99320 | -117.99371 | 8191 ft | 212 kts | 265° |
| 2026-04-22 22:15 | 33.99131 | -118.01127 | 7637 ft | 210 kts | 265° |
| 2026-04-22 22:15 | 33.98957 | -118.02887 | 7126 ft | 215 kts | 266° |
| 2026-04-22 22:15 | 33.98789 | -118.04663 | 6918 ft | 212 kts | 265° |
| 2026-04-22 22:15 | 33.98616 | -118.06445 | 6586 ft | 215 kts | 266° |
| 2026-04-22 22:16 | 33.98445 | -118.08192 | 6225 ft | 206 kts | 266° |
| 2026-04-22 22:16 | 33.98270 | -118.09915 | 5601 ft | 210 kts | 267° |
| 2026-04-22 22:16 | 33.98094 | -118.11677 | 4926 ft | 216 kts | 266° |
| 2026-04-22 22:16 | 33.97914 | -118.13491 | 4369 ft | 215 kts | 265° |
| 2026-04-22 22:17 | 33.97747 | -118.15209 | 4150 ft | 198 kts | 264° |
| 2026-04-22 22:17 | 33.97586 | -118.16804 | 3795 ft | 192 kts | 263° |
| 2026-04-22 22:17 | 33.97427 | -118.18366 | 3450 ft | 184 kts | 263° |
| 2026-04-22 22:17 | 33.97273 | -118.19888 | 3006 ft | 182 kts | 263° |
| 2026-04-22 22:18 | 33.97144 | -118.21345 | 2874 ft | 168 kts | 263° |
| 2026-04-22 22:18 | 33.97013 | -118.22715 | 2704 ft | 160 kts | 261° |
| 2026-04-22 22:18 | 33.96876 | -118.24039 | 2535 ft | 160 kts | 262° |
| 2026-04-22 22:18 | 33.96736 | -118.25381 | 2373 ft | 164 kts | 261° |
| 2026-04-22 22:19 | 33.96596 | -118.26736 | 2258 ft | 160 kts | 261° |
| 2026-04-22 22:19 | 33.96456 | -118.28090 | 2049 ft | 163 kts | 262° |
| 2026-04-22 22:19 | 33.96315 | -118.29455 | 1822 ft | 162 kts | 262° |
| 2026-04-22 22:19 | 33.96177 | -118.30792 | 1624 ft | 159 kts | 261° |
| 2026-04-22 22:20 | 33.96043 | -118.32074 | 1408 ft | 146 kts | 262° |
| 2026-04-22 22:20 | 33.95926 | -118.33219 | 1214 ft | 132 kts | 261° |
| 2026-04-22 22:20 | 33.95817 | -118.34281 | 1023 ft | 126 kts | 260° |
| 2026-04-22 22:20 | 33.95712 | -118.35313 | 871 ft | 123 kts | 259° |
| 2026-04-22 22:21 | 33.95602 | -118.36327 | 787 ft | 122 kts | 261° |
| 2026-04-22 22:21 | 33.95496 | -118.37339 | 602 ft | 118 kts | 262° |
| 2026-04-22 22:21 | 33.95399 | -118.38292 | 438 ft | 112 kts | 259° |
| 2026-04-22 22:21 | 33.95308 | -118.39228 | 306 ft | 116 kts | 262° |
| 2026-04-22 22:22 | 33.95219 | -118.40191 | 164 ft | 116 kts | 259° |
| 2026-04-22 22:22 | 33.95117 | -118.41122 | 121 ft | 95 kts | 263° |
| 2026-04-22 22:22 | 33.95063 | -118.41627 | 125 ft | 41 kts | 259° |
| 2026-04-22 22:22 | 33.95027 | -118.41856 | 125 ft | 28 kts | 270° |
| 2026-04-22 22:23 | 33.95011 | -118.42125 | 123 ft | 32 kts | 263° |
| 2026-04-22 22:23 | 33.94984 | -118.42383 | 125 ft | 29 kts | 260° |
| 2026-04-22 22:23 | 33.94919 | -118.42585 | 125 ft | 20 kts | 232° |
| 2026-04-22 22:23 | 33.94859 | -118.42672 | 122 ft | 5 kts | 228° |
| 2026-04-22 22:24 | 33.94857 | -118.42674 | 122 ft | 0 kts | 228° |
| 2026-04-22 22:24 | 33.94815 | -118.42720 | 122 ft | 22 kts | 218° |
| 2026-04-22 22:24 | 33.94666 | -118.42764 | 122 ft | 23 kts | 156° |
| 2026-04-22 22:25 | 33.94645 | -118.42609 | 125 ft | 25 kts | 83° |
| 2026-04-22 22:25 | 33.94674 | -118.42326 | 125 ft | 42 kts | 83° |
| 2026-04-22 22:25 | 33.94710 | -118.41974 | 125 ft | 42 kts | 83° |
| 2026-04-22 22:25 | 33.94744 | -118.41633 | 125 ft | 39 kts | 83° |
| 2026-04-22 22:26 | 33.94791 | -118.41315 | 120 ft | 39 kts | 79° |
| 2026-04-22 22:26 | 33.94824 | -118.41001 | 125 ft | 37 kts | 83° |
| 2026-04-22 22:26 | 33.94853 | -118.40703 | 125 ft | 36 kts | 83° |
| 2026-04-22 22:26 | 33.94889 | -118.40358 | 124 ft | 43 kts | 83° |
| 2026-04-22 22:27 | 33.94912 | -118.40129 | 124 ft | 21 kts | 88° |
| 2026-04-22 22:27 | 33.94840 | -118.40034 | 122 ft | 8 kts | 184° |
| 2026-04-22 22:27 | 33.94803 | -118.40074 | 123 ft | 2 kts | 226° |
| 2026-04-22 22:27 | 33.94801 | -118.40077 | 122 ft | 0 kts | 226° |